Terminal Aerodrome Forecast
Issued by NWS Boston, MA

Home | Current Version | Previous Version | Text Only | Print | Product List | Glossary On
Versions: 1 2 3 4 5 6 7 8 9 10 11 12 13 14 15 16 17 18 19 20 21 22 23 24 25 26 27 28 29 30 31 32 33 34 35 36 37 38 39 40 41 42 43 44 45 46
000
FTUS41 KBOX 262321
TAFBDL
TAF
KBDL 262321Z 2700/2806 02011KT 1 1/2SM -SN OVC015
     FM270200 02013G21KT 3/4SM -SN OVC010
     FM270600 01017G32KT 1/2SM SN BLSN OVC010
     FM271200 36017G33KT 1/4SM +SN BLSN OVC008
     FM271800 36018G26KT 1/2SM SN BLSN OVC008
     FM280200 34014G26KT 6SM BLSN OVC015=

USA.gov is the U.S. government's official web portal to all federal, state and local government web resources and services.